Time;durP1;ratioP1;P1;durP2;ratioP2;P2;SDS_P1;SDS_P2;PMS_P1;PMS_P2;Temp;Humidity;BMP_temperature;BMP_pressure;BME280_temperature;BME280_humidity;BME280_pressure;Samples;Min_cycle;Max_cycle;Signal;HPM_P1;HPM_P2
2021/03/14 00:01:46;;;;;;;36.70;30.25;;;22.90;47.60;;;;;;5073879;28;20017;-56
2021/03/14 00:04:12;;;;;;;43.53;36.38;;;22.90;47.50;;;;;;5073285;28;20024;-55
2021/03/14 00:06:38;;;;;;;51.30;45.30;;;22.90;47.40;;;;;;5055682;28;20037;-55
2021/03/14 00:09:04;;;;;;;58.15;51.78;;;22.80;47.30;;;;;;5055508;28;20381;-54
2021/03/14 00:11:30;;;;;;;55.75;49.65;;;22.80;47.20;;;;;;5073657;28;20035;-55
2021/03/14 00:13:56;;;;;;;55.22;48.88;;;22.80;47.20;;;;;;5073050;28;20108;-55
2021/03/14 00:16:22;;;;;;;53.75;47.97;;;22.80;47.10;;;;;;5073747;28;20021;-54
2021/03/14 00:18:48;;;;;;;51.97;46.45;;;22.80;47.10;;;;;;5036098;28;20032;-55
2021/03/14 00:21:15;;;;;;;48.05;42.88;;;22.80;47.60;;;;;;5072827;28;20431;-55
2021/03/14 00:23:41;;;;;;;47.95;42.03;;;22.80;47.10;;;;;;5072329;28;20029;-55
2021/03/14 00:26:07;;;;;;;44.35;39.60;;;22.80;46.80;;;;;;5055036;28;20025;-55
2021/03/14 00:28:33;;;;;;;46.65;41.63;;;22.80;46.80;;;;;;5066661;28;20036;-55
2021/03/14 00:30:59;;;;;;;43.20;38.53;;;22.80;46.80;;;;;;5073402;28;20013;-54
2021/03/14 00:33:25;;;;;;;40.88;36.47;;;22.80;46.70;;;;;;5073167;28;20020;-55
2021/03/14 00:35:51;;;;;;;37.92;33.92;;;22.80;46.60;;;;;;5055443;28;20032;-55
2021/03/14 00:38:17;;;;;;;37.15;32.58;;;22.80;46.60;;;;;;5072423;28;20059;-55
2021/03/14 00:40:43;;;;;;;36.28;31.85;;;22.80;46.50;;;;;;5072584;28;20025;-54
2021/03/14 00:43:10;;;;;;;32.63;29.15;;;22.80;46.40;;;;;;5072412;28;20547;-54
2021/03/14 00:45:38;;;;;;;30.35;27.08;;;22.80;46.30;;;;;;5072862;28;20025;-54
2021/03/14 00:48:07;;;;;;;27.13;24.27;;;22.80;46.20;;;;;;5074605;28;20032;-54
2021/03/14 00:50:36;;;;;;;26.45;22.73;;;22.80;46.10;;;;;;5075064;28;20036;-54
2021/03/14 00:53:04;;;;;;;22.73;19.60;;;22.80;46.00;;;;;;5074752;28;20450;-55
2021/03/14 00:55:33;;;;;;;22.50;18.45;;;22.70;45.90;;;;;;5074837;28;20035;-55
2021/03/14 00:57:59;;;;;;;20.63;18.15;;;22.80;45.70;;;;;;5091697;28;20034;-54
2021/03/14 01:00:25;;;;;;;19.90;16.88;;;22.70;46.20;;;;;;5093110;28;20039;-54
2021/03/14 01:02:51;;;;;;;16.02;14.40;;;22.70;45.50;;;;;;5074552;28;20020;-55
2021/03/14 01:05:20;;;;;;;15.15;13.55;;;22.70;45.30;;;;;;5074800;28;20108;-55
2021/03/14 01:07:46;;;;;;;13.00;11.65;;;22.70;45.20;;;;;;5057470;28;20474;-55
2021/03/14 01:10:14;;;;;;;12.18;10.85;;;22.70;45.00;;;;;;5074346;28;20478;-55
2021/03/14 01:12:41;;;;;;;12.80;10.30;;;22.70;44.70;;;;;;5054446;28;20038;-55
2021/03/14 01:15:16;;;;;;;9.93;8.82;;;22.60;44.50;;;;;;5087884;28;20021;-55
2021/03/14 01:17:49;;;;;;;11.10;9.15;;;22.70;44.40;;;;;;5055838;28;20035;-55
2021/03/14 01:20:20;;;;;;;9.55;7.80;;;22.60;44.30;;;;;;5071084;28;20032;-54
2021/03/14 01:22:47;;;;;;;10.55;7.80;;;22.60;44.00;;;;;;5091790;28;20035;-55
2021/03/14 01:25:14;;;;;;;10.93;8.02;;;22.60;44.10;;;;;;5057719;28;20027;-55
2021/03/14 01:27:45;;;;;;;9.27;7.20;;;22.60;44.20;;;;;;5074320;28;20046;-56
2021/03/14 01:30:13;;;;;;;7.55;6.05;;;22.50;44.00;;;;;;5074395;28;20028;-54
2021/03/14 01:32:38;;;;;;;7.60;6.35;;;22.60;44.00;;;;;;5109478;28;20016;-55
2021/03/14 01:35:05;;;;;;;9.18;6.30;;;22.60;44.00;;;;;;5112676;28;20031;-54
2021/03/14 01:37:31;;;;;;;7.38;6.03;;;22.50;43.90;;;;;;5096345;28;20081;-55
2021/03/14 01:39:57;;;;;;;6.88;6.18;;;22.50;43.90;;;;;;5073921;28;20036;-54
2021/03/14 01:42:27;;;;;;;8.60;6.30;;;22.50;43.80;;;;;;5092401;28;20382;-55
2021/03/14 01:44:54;;;;;;;9.43;5.35;;;22.50;43.60;;;;;;5092201;28;20024;-54
2021/03/14 01:47:34;;;;;;;8.52;5.43;;;22.50;43.80;;;;;;5077695;28;20477;-54
2021/03/14 01:50:05;;;;;;;8.48;5.20;;;22.50;43.50;;;;;;5075520;28;20033;-54
2021/03/14 01:52:32;;;;;;;8.63;6.05;;;22.50;43.70;;;;;;5051939;28;20033;-54
2021/03/14 01:54:59;;;;;;;6.68;5.25;;;22.50;43.60;;;;;;5045138;28;20032;-55
2021/03/14 01:57:26;;;;;;;8.73;5.15;;;22.40;43.50;;;;;;5073800;28;20028;-55
2021/03/14 01:59:52;;;;;;;6.45;4.60;;;22.40;43.50;;;;;;5075917;28;20032;-55
2021/03/14 02:02:18;;;;;;;9.00;5.10;;;22.40;43.40;;;;;;5075940;28;20040;-55
2021/03/14 02:04:44;;;;;;;5.80;5.03;;;22.50;43.30;;;;;;5075823;28;20111;-54
2021/03/14 02:07:10;;;;;;;5.45;4.50;;;22.40;43.30;;;;;;5073877;28;20150;-55
2021/03/14 02:09:37;;;;;;;7.05;5.22;;;22.40;43.30;;;;;;5075819;28;20032;-54
2021/03/14 02:12:06;;;;;;;8.10;5.60;;;22.40;43.20;;;;;;5075742;28;20021;-54
2021/03/14 02:14:35;;;;;;;6.20;4.73;;;22.40;43.00;;;;;;5075941;28;20059;-54
2021/03/14 02:17:02;;;;;;;6.50;4.82;;;22.40;43.10;;;;;;5075690;28;20261;-55
2021/03/14 02:19:32;;;;;;;8.70;4.70;;;22.40;43.10;;;;;;5076033;28;20040;-54
2021/03/14 02:22:00;;;;;;;4.95;4.45;;;22.40;43.00;;;;;;5075610;28;20037;-54
2021/03/14 02:24:32;;;;;;;6.18;4.20;;;22.40;42.90;;;;;;5057895;28;20032;-54
2021/03/14 02:27:03;;;;;;;6.78;3.85;;;22.40;42.60;;;;;;5075297;28;20045;-54
2021/03/14 02:29:30;;;;;;;4.65;3.45;;;22.40;42.50;;;;;;5075549;28;20016;-55
2021/03/14 02:31:57;;;;;;;6.47;4.10;;;22.40;42.70;;;;;;5075452;28;20059;-54
2021/03/14 02:34:45;;;;;;;5.35;3.70;;;22.30;42.60;;;;;;5076061;28;20082;-56
2021/03/14 02:37:13;;;;;;;6.32;3.65;;;22.30;42.60;;;;;;5055249;28;20454;-53
2021/03/14 02:39:40;;;;;;;4.85;2.92;;;22.30;42.30;;;;;;5054974;28;20044;-54
2021/03/14 02:42:09;;;;;;;4.80;3.28;;;22.30;42.20;;;;;;5074691;28;20021;-54
2021/03/14 02:44:38;;;;;;;6.13;3.63;;;22.30;42.10;;;;;;5075284;28;20486;-54
2021/03/14 02:47:06;;;;;;;5.03;3.20;;;22.30;42.10;;;;;;5075145;28;20049;-54
2021/03/14 02:49:36;;;;;;;4.97;3.50;;;22.30;42.70;;;;;;5075849;28;20378;-54
2021/03/14 02:52:04;;;;;;;5.70;3.35;;;22.30;42.10;;;;;;5075058;28;20024;-54
2021/03/14 02:54:33;;;;;;;9.05;3.72;;;22.20;42.00;;;;;;5075291;28;20021;-55
2021/03/14 02:57:00;;;;;;;3.80;3.05;;;22.20;42.00;;;;;;5074900;28;20028;-55
2021/03/14 02:59:28;;;;;;;4.70;3.30;;;22.20;41.90;;;;;;5075010;28;20021;-55
2021/03/14 03:01:54;;;;;;;5.45;3.30;;;22.20;41.90;;;;;;5074953;28;20052;-55
2021/03/14 03:04:25;;;;;;;5.70;2.95;;;22.20;41.90;;;;;;5074833;28;20077;-56
2021/03/14 03:06:54;;;;;;;3.55;2.95;;;22.20;41.70;;;;;;5075011;28;20111;-55
2021/03/14 03:09:20;;;;;;;3.60;2.80;;;22.20;41.60;;;;;;5073338;28;20056;-55
2021/03/14 03:11:51;;;;;;;5.30;2.95;;;22.20;41.60;;;;;;5074896;28;20096;-56
2021/03/14 03:14:18;;;;;;;4.72;3.10;;;22.20;41.50;;;;;;5074537;28;20025;-55
2021/03/14 03:16:49;;;;;;;6.53;2.90;;;22.10;41.50;;;;;;5074720;28;20021;-55
2021/03/14 03:19:16;;;;;;;4.63;2.80;;;22.10;41.30;;;;;;5074533;28;20078;-55
2021/03/14 03:21:43;;;;;;;3.97;2.90;;;22.10;41.40;;;;;;5074684;28;20033;-55
2021/03/14 03:24:11;;;;;;;6.97;2.88;;;22.10;41.20;;;;;;5074319;28;20024;-55
2021/03/14 03:26:41;;;;;;;4.97;3.10;;;22.10;41.10;;;;;;5074515;28;20028;-55
2021/03/14 03:29:08;;;;;;;;;;;22.10;40.90;;;;;;5074636;28;20060;-55
2021/03/14 03:31:34;;;;;;;4.88;3.15;;;22.00;41.60;;;;;;5074327;28;19974;-55
2021/03/14 03:34:00;;;;;;;5.03;3.17;;;22.10;41.10;;;;;;5074665;28;20112;-55
2021/03/14 03:36:26;;;;;;;4.30;2.85;;;22.10;40.90;;;;;;5074493;28;20103;-55
2021/03/14 03:38:52;;;;;;;6.95;3.22;;;22.10;40.90;;;;;;5074113;28;20111;-55
2021/03/14 03:41:19;;;;;;;3.78;3.10;;;22.00;40.80;;;;;;5073194;28;20107;-55
2021/03/14 03:43:46;;;;;;;4.20;2.88;;;22.00;40.70;;;;;;5073178;28;20086;-55
2021/03/14 03:46:15;;;;;;;3.35;3.05;;;22.00;40.70;;;;;;5072793;28;20063;-55
2021/03/14 03:48:46;;;;;;;4.00;2.97;;;22.00;40.50;;;;;;5073096;28;20029;-55
2021/03/14 03:51:14;;;;;;;5.88;2.63;;;22.00;40.40;;;;;;5072999;28;20056;-55
2021/03/14 03:53:41;;;;;;;5.55;3.08;;;21.90;40.60;;;;;;5071119;28;20146;-55
2021/03/14 03:56:10;;;;;;;5.65;3.05;;;22.00;40.60;;;;;;5073184;28;20028;-55
2021/03/14 03:58:36;;;;;;;4.05;2.63;;;21.90;40.50;;;;;;5072680;28;20029;-55
2021/03/14 04:01:04;;;;;;;3.25;2.60;;;21.90;40.60;;;;;;5073821;28;20025;-55
2021/03/14 04:03:39;;;;;;;5.90;2.92;;;21.90;40.60;;;;;;5073988;28;20020;-55
2021/03/14 04:06:06;;;;;;;4.45;2.78;;;21.90;40.40;;;;;;5073836;28;20501;-55
2021/03/14 04:08:33;;;;;;;6.22;2.80;;;21.90;40.50;;;;;;5073814;28;20032;-54
2021/03/14 04:11:00;;;;;;;4.00;2.95;;;21.90;40.60;;;;;;5073556;28;20039;-54
2021/03/14 04:13:27;;;;;;;3.65;2.50;;;21.90;40.50;;;;;;5073623;28;20021;-54
2021/03/14 04:15:53;;;;;;;6.82;3.10;;;21.90;40.50;;;;;;5073547;28;20051;-54
2021/03/14 04:18:21;;;;;;;6.45;3.03;;;21.90;40.50;;;;;;5073530;28;20489;-55
2021/03/14 04:20:48;;;;;;;3.60;2.70;;;21.90;40.50;;;;;;5073205;28;20505;-54
2021/03/14 04:23:18;;;;;;;2.65;2.22;;;21.90;40.50;;;;;;5073513;28;20100;-53
2021/03/14 04:25:44;;;;;;;;;;;21.90;40.40;;;;;;5073723;28;20073;-53
2021/03/14 04:28:11;;;;;;;5.25;3.20;;;21.80;41.50;;;;;;5072951;28;19912;-53
2021/03/14 04:30:38;;;;;;;5.57;3.55;;;21.90;40.30;;;;;;5073240;28;20031;-55
2021/03/14 04:33:05;;;;;;;4.22;2.95;;;21.90;40.20;;;;;;5072815;28;20083;-54
2021/03/14 04:35:32;;;;;;;4.28;3.20;;;21.90;40.30;;;;;;5072717;28;20032;-55
2021/03/14 04:37:59;;;;;;;4.70;3.05;;;21.80;40.30;;;;;;5072136;28;20142;-54
2021/03/14 04:40:26;;;;;;;9.07;3.92;;;21.80;40.30;;;;;;5072810;28;20061;-54
2021/03/14 04:42:54;;;;;;;6.45;3.80;;;21.90;40.10;;;;;;5076216;28;20382;-54
2021/03/14 04:45:23;;;;;;;4.82;3.80;;;21.80;40.10;;;;;;5093451;28;20028;-54
2021/03/14 04:47:49;;;;;;;4.85;3.45;;;21.80;40.10;;;;;;5090158;28;20044;-54
2021/03/14 04:50:19;;;;;;;5.85;3.60;;;21.80;40.10;;;;;;5055366;28;20458;-54
2021/03/14 04:52:50;;;;;;;4.40;3.13;;;21.80;39.90;;;;;;5072698;28;20385;-54
2021/03/14 04:55:17;;;;;;;5.00;3.30;;;21.70;39.80;;;;;;5073060;28;20059;-54
2021/03/14 04:57:44;;;;;;;3.83;3.20;;;21.70;39.90;;;;;;5055271;28;20036;-55
2021/03/14 05:00:12;;;;;;;5.95;3.83;;;21.70;40.00;;;;;;5072628;28;20177;-54
2021/03/14 05:02:42;;;;;;;4.78;3.28;;;21.70;39.90;;;;;;5072488;28;20021;-54
2021/03/14 05:05:10;;;;;;;6.18;2.85;;;21.70;39.90;;;;;;5072863;28;20036;-54
2021/03/14 05:07:36;;;;;;;6.82;3.15;;;21.70;39.90;;;;;;5072428;28;20082;-55
2021/03/14 05:10:07;;;;;;;4.55;2.97;;;21.70;39.90;;;;;;5072507;28;20033;-55
2021/03/14 05:12:33;;;;;;;5.05;2.95;;;21.70;39.80;;;;;;5072459;28;20063;-55
2021/03/14 05:15:00;;;;;;;4.05;2.97;;;21.70;40.00;;;;;;5072581;28;20016;-55
2021/03/14 05:17:26;;;;;;;5.20;3.17;;;21.70;39.90;;;;;;5054698;28;20039;-55
2021/03/14 05:19:52;;;;;;;6.97;3.63;;;21.70;39.90;;;;;;5072788;28;20036;-55
2021/03/14 05:22:20;;;;;;;3.67;3.28;;;21.70;39.70;;;;;;5072363;28;20090;-55
2021/03/14 05:24:48;;;;;;;4.80;3.33;;;21.70;39.70;;;;;;5072133;28;20048;-55
2021/03/14 05:27:14;;;;;;;3.95;2.70;;;21.70;39.60;;;;;;5072258;28;20031;-55
2021/03/14 05:29:45;;;;;;;3.70;2.95;;;21.70;39.70;;;;;;5072345;28;20137;-55
2021/03/14 05:32:11;;;;;;;4.10;3.25;;;21.60;39.80;;;;;;5071530;28;20331;-55
2021/03/14 05:34:37;;;;;;;3.03;2.65;;;21.60;39.80;;;;;;5072407;28;20020;-54
2021/03/14 05:37:03;;;;;;;6.13;3.80;;;21.70;39.70;;;;;;5072561;28;20031;-55
2021/03/14 05:39:29;;;;;;;6.63;2.72;;;21.60;39.70;;;;;;5071886;28;20042;-54
2021/03/14 05:41:56;;;;;;;4.32;2.97;;;21.70;39.80;;;;;;5070515;28;20119;-54
2021/03/14 05:44:22;;;;;;;6.10;3.03;;;21.60;39.70;;;;;;5071919;28;20371;-55
2021/03/14 05:46:48;;;;;;;4.35;2.88;;;21.60;39.70;;;;;;5072480;28;20041;-54
2021/03/14 05:49:15;;;;;;;4.57;2.80;;;21.60;39.70;;;;;;5072267;28;20130;-55
2021/03/14 05:51:44;;;;;;;4.43;2.80;;;21.60;39.50;;;;;;5087636;28;20056;-55
2021/03/14 05:54:11;;;;;;;4.05;2.95;;;21.60;39.50;;;;;;5072405;28;20036;-55
2021/03/14 05:56:41;;;;;;;4.32;2.75;;;21.60;39.60;;;;;;5072212;28;20034;-55
2021/03/14 05:59:09;;;;;;;3.80;2.67;;;21.60;39.60;;;;;;5072263;28;20035;-54
2021/03/14 06:01:36;;;;;;;3.80;2.25;;;21.60;39.60;;;;;;5072093;28;20476;-54
2021/03/14 06:04:06;;;;;;;3.63;2.28;;;21.60;39.70;;;;;;5071783;28;20062;-55
2021/03/14 06:06:32;;;;;;;3.65;2.58;;;21.60;39.70;;;;;;5071830;28;20035;-55
2021/03/14 06:08:58;;;;;;;3.42;2.60;;;21.50;39.60;;;;;;5071704;28;20040;-55
2021/03/14 06:11:24;;;;;;;5.75;2.70;;;21.60;39.70;;;;;;5072235;28;20040;-54
2021/03/14 06:13:50;;;;;;;3.53;2.10;;;21.60;39.70;;;;;;5071698;28;20063;-54
2021/03/14 06:16:16;;;;;;;3.65;2.53;;;21.60;39.70;;;;;;5071788;28;20052;-57
2021/03/14 06:18:43;;;;;;;4.30;2.67;;;21.60;39.70;;;;;;5071926;28;20524;-58
2021/03/14 06:21:27;;;;;;;3.30;2.30;;;21.60;39.60;;;;;;5071774;28;20029;-59
2021/03/14 06:24:02;;;;;;;4.28;3.03;;;21.60;39.70;;;;;;5072249;28;20039;-58
2021/03/14 06:26:32;;;;;;;3.90;2.58;;;21.50;39.60;;;;;;5071621;28;20040;-57
2021/03/14 06:28:58;;;;;;;2.75;2.40;;;21.60;39.60;;;;;;5071975;28;20077;-57
2021/03/14 06:31:24;;;;;;;7.20;6.18;;;21.60;39.70;;;;;;5056993;28;20024;-57
2021/03/14 06:33:50;;;;;;;15.68;13.80;;;21.60;39.70;;;;;;5072152;28;20033;-57
2021/03/14 06:36:22;;;;;;;29.00;25.77;;;21.60;39.70;;;;;;5071152;28;20029;-56
2021/03/14 06:38:50;;;;;;;44.83;40.10;;;21.60;39.60;;;;;;5071259;28;20221;-56
2021/03/14 06:41:19;;;;;;;51.47;45.88;;;21.50;39.40;;;;;;5071334;28;20031;-56
2021/03/14 06:43:57;;;;;;;59.35;53.00;;;21.60;39.60;;;;;;5052116;28;20033;-57
2021/03/14 06:46:32;;;;;;;64.97;58.00;;;21.50;39.40;;;;;;5078213;28;20043;-58
2021/03/14 06:49:05;;;;;;;65.47;58.38;;;21.50;39.40;;;;;;5085185;28;20085;-58
2021/03/14 06:51:43;;;;;;;54.38;48.30;;;21.50;39.20;;;;;;5083258;28;20017;-58
2021/03/14 06:54:26;;;;;;;57.38;50.40;;;21.50;39.40;;;;;;5080658;28;20025;-56
2021/03/14 06:57:14;;;;;;;51.17;45.78;;;21.40;39.30;;;;;;5075222;28;20100;-58
2021/03/14 06:59:47;;;;;;;45.20;40.50;;;21.50;39.30;;;;;;5056299;28;20063;-59
2021/03/14 07:02:23;;;;;;;53.75;48.00;;;21.50;39.20;;;;;;5070748;28;20104;-60
2021/03/14 07:04:52;;;;;;;79.80;69.40;;;21.50;39.20;;;;;;5072738;28;20039;-60
2021/03/14 07:07:30;;;;;;;105.87;90.27;;;21.40;39.10;;;;;;5066791;28;20058;-60
2021/03/14 07:10:05;;;;;;;116.07;101.65;;;21.50;39.40;;;;;;5073626;28;20025;-60
2021/03/14 07:12:33;;;;;;;108.80;96.93;;;21.40;39.20;;;;;;5073843;28;20028;-61
2021/03/14 07:15:17;;;;;;;103.32;92.07;;;21.50;39.40;;;;;;5073440;28;20115;-60
2021/03/14 07:17:49;;;;;;;101.53;90.65;;;21.40;39.40;;;;;;5073910;28;20036;-60
2021/03/14 07:20:17;;;;;;;101.65;90.53;;;21.50;39.50;;;;;;5073826;28;20493;-60
2021/03/14 07:22:56;;;;;;;105.30;93.68;;;21.50;39.60;;;;;;5073670;28;20032;-60
2021/03/14 07:25:23;;;;;;;100.60;89.85;;;21.50;39.60;;;;;;5073967;28;20104;-60
2021/03/14 07:27:50;;;;;;;97.80;86.45;;;21.50;39.70;;;;;;5073527;28;20078;-60
2021/03/14 07:30:18;;;;;;;231.38;199.57;;;21.50;39.80;;;;;;5069246;28;20056;-56
2021/03/14 07:32:46;;;;;;;172.60;153.60;;;21.50;39.70;;;;;;5066335;28;20505;-60
2021/03/14 07:35:13;;;;;;;141.52;124.50;;;21.50;39.70;;;;;;5073693;28;20021;-57
2021/03/14 07:37:41;;;;;;;149.82;133.35;;;21.50;39.80;;;;;;5073768;28;20025;-57
2021/03/14 07:40:15;;;;;;;157.40;140.18;;;21.60;39.90;;;;;;5073710;28;20038;-57
2021/03/14 07:42:43;;;;;;;159.02;141.50;;;21.60;39.80;;;;;;5072820;28;20526;-59
2021/03/14 07:45:12;;;;;;;154.77;136.18;;;21.60;39.90;;;;;;5073103;28;20070;-61
2021/03/14 07:47:40;;;;;;;140.02;124.70;;;21.60;39.90;;;;;;5073185;28;20126;-59
2021/03/14 07:50:16;;;;;;;120.20;107.28;;;21.60;39.90;;;;;;5064656;28;20163;-57
2021/03/14 07:52:42;;;;;;;115.97;103.43;;;21.60;39.80;;;;;;5064980;28;20017;-59
2021/03/14 07:55:12;;;;;;;110.00;97.57;;;21.60;39.80;;;;;;5054173;28;20059;-57
2021/03/14 07:57:45;;;;;;;101.20;89.97;;;21.60;39.50;;;;;;5083988;28;20059;-59
2021/03/14 08:00:23;;;;;;;350.77;310.88;;;21.70;39.50;;;;;;5071603;28;20109;-55
2021/03/14 08:03:00;;;;;;;229.85;205.63;;;21.70;38.40;;;;;;5072652;28;20070;-57
2021/03/14 08:05:48;;;;;;;152.50;135.63;;;21.60;38.30;;;;;;5075740;28;20461;-60
2021/03/14 08:08:26;;;;;;;155.60;136.15;;;21.60;38.80;;;;;;5072911;28;20509;-59
2021/03/14 08:10:55;;;;;;;154.93;138.00;;;21.60;38.80;;;;;;5072338;28;20046;-59
2021/03/14 08:13:30;;;;;;;119.30;106.13;;;21.60;38.90;;;;;;5072871;28;20021;-58
2021/03/14 08:16:08;;;;;;;128.60;114.03;;;21.60;38.80;;;;;;5055339;28;20063;-58
2021/03/14 08:18:40;;;;;;;116.97;103.85;;;21.60;38.90;;;;;;5072453;28;20054;-57
2021/03/14 08:21:27;;;;;;;97.55;87.13;;;21.70;39.70;;;;;;5072658;28;20403;-59
2021/03/14 08:23:57;;;;;;;82.38;72.65;;;21.70;39.10;;;;;;5054770;28;20397;-58
2021/03/14 08:26:28;;;;;;;80.50;71.82;;;21.70;39.00;;;;;;5077772;28;20434;-59
2021/03/14 08:28:56;;;;;;;74.22;66.15;;;21.80;39.00;;;;;;5060746;28;20063;-59
2021/03/14 08:31:54;;;;;;;75.60;66.93;;;21.70;39.00;;;;;;5067970;28;20119;-57
2021/03/14 08:34:51;;;;;;;66.45;59.17;;;21.80;39.20;;;;;;5060464;28;20490;-59
2021/03/14 08:37:25;;;;;;;65.20;54.38;;;21.80;39.10;;;;;;5073447;28;20029;-57
2021/03/14 08:40:04;;;;;;;52.95;45.83;;;21.80;39.10;;;;;;5077854;28;20696;-57
2021/03/14 08:43:02;;;;;;;50.33;42.22;;;21.90;39.10;;;;;;5061183;28;20033;-57
2021/03/14 08:45:47;;;;;;;47.53;42.22;;;21.90;39.10;;;;;;5055609;28;20024;-57
2021/03/14 08:48:29;;;;;;;43.63;37.90;;;21.90;39.00;;;;;;5060158;28;20032;-54
2021/03/14 08:50:56;;;;;;;123.88;110.22;;;22.00;39.10;;;;;;5107090;28;20051;-56
2021/03/14 08:53:28;;;;;;;77.60;65.10;;;22.00;39.00;;;;;;5072679;28;20432;-56
2021/03/14 08:55:58;;;;;;;57.10;50.78;;;22.00;39.00;;;;;;5092897;28;20040;-56
2021/03/14 08:58:29;;;;;;;52.05;46.38;;;22.00;38.80;;;;;;5072432;28;20035;-57
2021/03/14 09:01:15;;;;;;;42.63;37.60;;;22.10;38.70;;;;;;5089699;28;20047;-57
2021/03/14 09:03:54;;;;;;;35.38;31.15;;;22.10;38.50;;;;;;5074923;28;20028;-57
2021/03/14 09:06:30;;;;;;;26.40;23.42;;;22.10;38.20;;;;;;5074017;28;20031;-57
2021/03/14 09:09:13;;;;;;;20.38;16.90;;;22.10;37.70;;;;;;5089062;28;20035;-57
2021/03/14 09:11:50;;;;;;;82.47;73.88;;;22.20;37.50;;;;;;5088541;28;20024;-59
2021/03/14 09:14:39;;;;;;;45.78;41.03;;;22.20;37.50;;;;;;5049145;28;20039;-58
2021/03/14 09:17:11;;;;;;;31.65;28.27;;;22.20;36.90;;;;;;5074522;28;20032;-58
2021/03/14 09:19:57;;;;;;;26.08;23.38;;;22.20;37.00;;;;;;5069149;28;20051;-58
2021/03/14 09:22:36;;;;;;;18.35;16.42;;;22.30;36.80;;;;;;5054361;28;20108;-58
2021/03/14 09:25:20;;;;;;;16.38;14.27;;;22.30;36.60;;;;;;5072466;28;20044;-57
2021/03/14 09:27:48;;;;;;;15.07;13.05;;;22.30;36.60;;;;;;5091285;28;20080;-59
2021/03/14 09:30:22;;;;;;;12.35;11.05;;;22.30;36.60;;;;;;5074308;28;20157;-60
2021/03/14 09:32:59;;;;;;;9.33;8.00;;;22.40;36.50;;;;;;5074562;28;20039;-60
2021/03/14 09:35:33;;;;;;;12.38;7.72;;;22.40;36.10;;;;;;5078145;28;20520;-59
2021/03/14 09:38:11;;;;;;;9.10;6.05;;;22.40;35.80;;;;;;5074146;28;20031;-58
2021/03/14 09:40:44;;;;;;;6.57;5.50;;;22.50;36.00;;;;;;5088372;28;20435;-60
2021/03/14 09:43:25;;;;;;;5.78;4.85;;;22.50;36.10;;;;;;5074658;28;20035;-60
2021/03/14 09:46:18;;;;;;;53.90;46.67;;;22.60;35.80;;;;;;5084263;28;20036;-60
2021/03/14 09:49:14;;;;;;;105.68;94.30;;;23.00;35.50;;;;;;5072534;28;20094;-59
2021/03/14 09:51:58;;;;;;;107.78;96.05;;;23.70;34.40;;;;;;5052994;28;20111;-59
2021/03/14 09:54:29;;;;;;;73.65;63.22;;;24.50;33.80;;;;;;5077150;28;20060;-59
2021/03/14 09:56:56;;;;;;;64.68;57.55;;;24.90;34.00;;;;;;5070996;28;20028;-59
2021/03/14 09:59:36;;;;;;;40.53;36.08;;;25.20;33.80;;;;;;5019975;28;20031;-58
2021/03/14 10:02:36;;;;;;;31.80;26.15;;;25.40;34.20;;;;;;5055635;28;20025;-59
2021/03/14 10:05:55;;;;;;;14.13;11.57;;;25.60;34.00;;;;;;5058695;28;20390;-62
2021/03/14 10:08:29;;;;;;;9.68;8.35;;;25.80;34.50;;;;;;5053167;28;20028;-60
2021/03/14 10:11:05;;;;;;;13.23;7.65;;;25.90;35.00;;;;;;5071383;28;20031;-60
2021/03/14 10:13:35;;;;;;;16.60;10.50;;;25.90;35.10;;;;;;5017077;28;20024;-60
2021/03/14 10:16:13;;;;;;;15.35;10.75;;;25.90;35.00;;;;;;5041627;28;20024;-61
2021/03/14 10:18:40;;;;;;;20.75;8.52;;;25.90;35.70;;;;;;5055225;28;20032;-56
2021/03/14 10:21:22;;;;;;;24.13;10.95;;;25.90;36.60;;;;;;5057463;28;20466;-55
2021/03/14 10:24:24;;;;;;;13.50;8.55;;;25.80;36.70;;;;;;5054260;28;20047;-55
2021/03/14 10:27:23;;;;;;;10.88;8.30;;;25.80;37.70;;;;;;5059611;28;20071;-56
2021/03/14 10:30:16;;;;;;;12.48;7.72;;;25.70;38.80;;;;;;5074969;28;20032;-54
2021/03/14 10:32:51;;;;;;;19.58;9.25;;;25.70;40.00;;;;;;5066324;28;20055;-53
2021/03/14 10:35:34;;;;;;;13.20;8.65;;;25.60;40.70;;;;;;5081978;28;20024;-54
2021/03/14 10:38:20;;;;;;;15.23;8.80;;;25.50;41.40;;;;;;5075187;28;20160;-60
2021/03/14 10:40:50;;;;;;;14.73;10.02;;;25.50;42.30;;;;;;5052029;28;20036;-61
2021/03/14 10:43:25;;;;;;;14.30;10.02;;;25.40;42.10;;;;;;5055677;28;20032;-60
2021/03/14 10:46:04;;;;;;;10.63;8.75;;;25.30;43.30;;;;;;5055729;28;20036;-60
2021/03/14 10:48:30;;;;;;;14.55;10.15;;;25.30;42.80;;;;;;5073662;28;20119;-60
2021/03/14 10:51:02;;;;;;;14.55;10.25;;;25.30;43.10;;;;;;5055437;28;20028;-60
2021/03/14 10:53:30;;;;;;;13.43;9.23;;;25.30;43.60;;;;;;5081193;28;20027;-58
2021/03/14 10:56:07;;;;;;;14.00;9.27;;;25.30;44.40;;;;;;5039590;28;20479;-58
2021/03/14 10:58:41;;;;;;;14.85;9.90;;;25.30;44.40;;;;;;5073428;28;20032;-56
2021/03/14 11:01:30;;;;;;;14.93;10.60;;;25.40;44.90;;;;;;5054922;28;20052;-57
2021/03/14 11:04:06;;;;;;;22.05;9.57;;;25.40;44.90;;;;;;5054005;28;20150;-57
2021/03/14 11:06:34;;;;;;;12.57;10.05;;;25.30;44.90;;;;;;5068728;28;20076;-57
2021/03/14 11:09:10;;;;;;;15.43;9.32;;;25.50;44.70;;;;;;5085516;28;20020;-57
2021/03/14 11:11:44;;;;;;;23.83;9.80;;;25.50;44.40;;;;;;5055196;28;20016;-58
2021/03/14 11:14:36;;;;;;;15.68;10.73;;;25.60;44.60;;;;;;5072605;28;20039;-57
2021/03/14 11:17:17;;;;;;;15.43;10.55;;;25.60;44.60;;;;;;5072863;28;20032;-58
2021/03/14 11:19:54;;;;;;;18.42;9.60;;;25.80;44.80;;;;;;5076693;28;20508;-58
2021/03/14 11:22:23;;;;;;;22.08;14.38;;;25.80;44.60;;;;;;5087648;28;20028;-58
2021/03/14 11:24:51;;;;;;;20.83;11.57;;;25.90;44.50;;;;;;5073377;28;20028;-58
2021/03/14 11:27:21;;;;;;;20.65;10.20;;;26.00;44.70;;;;;;5088904;28;20554;-57
2021/03/14 11:29:47;;;;;;;13.80;11.90;;;26.10;44.70;;;;;;5072100;28;20051;-57
2021/03/14 11:32:18;;;;;;;16.17;10.80;;;26.10;44.40;;;;;;5088759;28;20025;-58
2021/03/14 11:34:58;;;;;;;16.20;10.60;;;26.20;44.50;;;;;;5088863;28;20500;-57
2021/03/14 11:37:50;;;;;;;14.98;10.68;;;26.30;44.60;;;;;;5064483;28;20040;-57
2021/03/14 11:40:45;;;;;;;13.52;9.55;;;26.40;44.50;;;;;;5067917;28;20108;-60
2021/03/14 11:43:29;;;;;;;17.17;11.02;;;26.40;44.50;;;;;;5055037;28;20036;-58
2021/03/14 11:46:24;;;;;;;14.57;10.20;;;26.40;44.40;;;;;;5072558;28;20053;-59
2021/03/14 11:49:00;;;;;;;14.55;10.20;;;26.40;44.60;;;;;;5108755;28;20039;-59
2021/03/14 11:51:26;;;;;;;16.00;9.02;;;26.40;44.70;;;;;;5074861;28;20115;-58
2021/03/14 11:53:59;;;;;;;14.70;9.38;;;26.40;45.30;;;;;;5074834;28;20023;-58
2021/03/14 11:56:28;;;;;;;14.93;9.63;;;26.40;44.90;;;;;;5074864;28;20028;-58
2021/03/14 11:58:58;;;;;;;12.88;9.23;;;26.40;45.00;;;;;;5093051;28;20036;-57
2021/03/14 12:01:29;;;;;;;18.08;11.40;;;26.40;45.10;;;;;;5074716;28;20032;-57
2021/03/14 12:04:00;;;;;;;13.90;10.52;;;26.50;45.10;;;;;;5074571;28;20024;-58
2021/03/14 12:06:27;;;;;;;14.73;10.98;;;26.60;45.20;;;;;;5058075;28;20062;-57
2021/03/14 12:09:12;;;;;;;13.48;9.25;;;26.70;45.20;;;;;;5070797;28;20394;-58
2021/03/14 12:11:43;;;;;;;11.35;9.68;;;26.80;44.90;;;;;;5073176;28;20047;-58
2021/03/14 12:14:10;;;;;;;14.63;8.55;;;26.90;44.80;;;;;;5058314;28;20119;-58
2021/03/14 12:17:14;;;;;;;13.75;9.40;;;26.90;44.30;;;;;;5072284;28;20370;-58
2021/03/14 12:20:00;;;;;;;16.00;10.27;;;27.00;44.10;;;;;;5072698;28;20074;-58
2021/03/14 12:22:35;;;;;;;13.80;9.00;;;27.10;44.20;;;;;;5054298;28;20525;-58
2021/03/14 12:25:04;;;;;;;17.27;8.77;;;27.20;44.00;;;;;;5072117;28;20029;-59
2021/03/14 12:27:30;;;;;;;13.65;9.27;;;27.30;44.00;;;;;;5054269;28;20123;-58
2021/03/14 12:29:56;;;;;;;13.27;8.80;;;27.30;43.70;;;;;;5072055;28;20431;-58
2021/03/14 12:32:25;;;;;;;11.93;8.93;;;27.40;43.60;;;;;;5056170;28;20021;-59
2021/03/14 12:34:52;;;;;;;13.35;9.45;;;27.50;43.50;;;;;;5107667;28;20119;-58
2021/03/14 12:37:24;;;;;;;13.35;9.85;;;27.60;43.30;;;;;;5105919;28;20032;-57
2021/03/14 12:39:57;;;;;;;13.73;9.75;;;27.70;43.30;;;;;;5080716;28;20448;-57
2021/03/14 12:42:23;;;;;;;19.17;9.25;;;27.80;43.10;;;;;;5091853;28;20123;-58
2021/03/14 12:48:36;;;;;;;12.45;8.10;;;28.10;42.70;;;;;;4773347;28;20393;-56
2021/03/14 12:51:05;;;;;;;20.00;8.13;;;28.10;42.50;;;;;;5073481;28;20032;-55
2021/03/14 12:53:34;;;;;;;22.70;8.45;;;28.10;42.50;;;;;;5107655;28;20016;-57
2021/03/14 12:56:05;;;;;;;20.33;9.07;;;28.00;42.60;;;;;;5067765;28;20394;-57
2021/03/14 12:58:36;;;;;;;28.23;9.65;;;27.90;42.80;;;;;;5070316;28;20416;-57
2021/03/14 13:01:03;;;;;;;33.83;8.48;;;27.70;43.00;;;;;;5071315;28;20032;-57
2021/03/14 13:03:29;;;;;;;30.67;8.65;;;27.60;43.30;;;;;;5071857;28;20032;-58